Time;durP1;ratioP1;P1;durP2;ratioP2;P2;SDS_P1;SDS_P2;PMS_P1;PMS_P2;Temp;Humidity;BMP_temperature;BMP_pressure;BME280_temperature;BME280_humidity;BME280_pressure;Samples;Min_cycle;Max_cycle;Signal;HPM_P1;HPM_P2
2022/03/30 00:01:40;;;;;;;;;;;;;;;14.62;42.65;99751.13;4921058;28;98417;-62
2022/03/30 00:04:06;;;;;;;;;;;;;;;14.61;42.76;99757.69;4920708;28;98783;-63
2022/03/30 00:06:32;;;;;;;;;;;;;;;14.59;42.73;99744.44;4918261;28;127626;-62
2022/03/30 00:08:58;;;;;;;;;;;;;;;14.57;42.90;99757.50;4903424;28;107412;-62
2022/03/30 00:11:24;;;;;;;;;;;;;;;14.56;42.91;99749.69;4919692;28;128601;-62
2022/03/30 00:13:50;;;;;;;;;;;;;;;14.54;42.93;99755.44;4903489;28;102603;-62
2022/03/30 00:16:16;;;;;;;;;;;;;;;14.52;42.76;99756.84;4920897;28;98001;-62
2022/03/30 00:18:42;;;;;;;;;;;;;;;14.50;42.76;99754.41;4920188;28;119280;-62
2022/03/30 00:21:08;;;;;;;;;;;;;;;14.47;42.82;99747.69;4920170;28;104674;-62
2022/03/30 00:23:34;;;;;;;;;;;;;;;14.46;43.00;99754.22;4921690;28;99253;-62
2022/03/30 00:26:00;;;;;;;;;;;;;;;14.45;42.70;99751.81;4919739;28;98538;-62
2022/03/30 00:28:27;;;;;;;;;;;;;;;14.42;42.93;99755.97;4920216;28;120375;-62
2022/03/30 00:30:54;;;;;;;;;;;;;;;14.41;43.01;99748.13;4902768;28;98979;-62
2022/03/30 00:33:20;;;;;;;;;;;;;;;14.39;42.95;99750.38;4921442;28;100339;-62
2022/03/30 00:35:46;;;;;;;;;;;;;;;14.38;43.10;99740.59;4919239;28;127870;-62
2022/03/30 00:38:13;;;;;;;;;;;;;;;14.36;42.71;99740.94;4921790;28;97763;-62
2022/03/30 00:40:39;;;;;;;;;;;;;;;14.33;42.75;99746.97;4919541;28;127275;-62
2022/03/30 00:43:04;;;;;;;;;;;;;;;14.30;42.70;99736.72;4920399;28;128122;-62
2022/03/30 00:45:30;;;;;;;;;;;;;;;14.29;42.75;99737.06;4918342;28;127579;-62
2022/03/30 00:47:56;;;;;;;;;;;;;;;14.26;42.88;99733.03;4920600;28;101978;-62
2022/03/30 00:50:23;;;;;;;;;;;;;;;14.24;42.92;99738.78;4919700;28;128138;-62
2022/03/30 00:52:50;;;;;;;;;;;;;;;14.23;42.71;99739.09;4920039;28;99205;-62
2022/03/30 00:55:17;;;;;;;;;;;;;;;14.22;42.74;99738.28;4920411;28;98645;-62
2022/03/30 00:57:43;;;;;;;;;;;;;;;14.20;42.96;99739.72;4920596;28;97922;-63
2022/03/30 01:00:12;;;;;;;;;;;;;;;14.18;42.70;99736.50;4920509;28;98573;-62
2022/03/30 01:02:39;;;;;;;;;;;;;;;14.17;42.64;99732.19;4902910;28;100358;-62
2022/03/30 01:05:06;;;;;;;;;;;;;;;14.16;42.66;99736.00;4918612;28;98866;-62
2022/03/30 01:07:32;;;;;;;;;;;;;;;14.13;42.68;99734.72;4920276;28;97906;-62
2022/03/30 01:09:57;;;;;;;;;;;;;;;14.12;42.86;99732.31;4920195;28;99421;-62
2022/03/30 01:12:23;;;;;;;;;;;;;;;14.12;42.89;99735.03;4917290;28;128861;-64
2022/03/30 01:14:49;;;;;;;;;;;;;;;14.10;42.71;99731.81;4919380;28;126983;-62
2022/03/30 01:17:15;;;;;;;;;;;;;;;14.08;42.84;99725.91;4917780;28;121231;-64
2022/03/30 01:19:41;;;;;;;;;;;;;;;14.06;42.78;99728.13;4918601;28;128129;-63
2022/03/30 01:22:08;;;;;;;;;;;;;;;14.05;42.76;99729.22;4919103;28;128049;-64
2022/03/30 01:24:35;;;;;;;;;;;;;;;14.03;42.59;99726.03;4920879;28;98471;-62
2022/03/30 01:27:01;;;;;;;;;;;;;;;14.03;42.59;99726.03;4920337;28;98405;-63
2022/03/30 01:32:26;;;;;;;;;;;;;;;13.98;42.75;99721.53;4875234;28;98291;-62
2022/03/30 01:34:53;;;;;;;;;;;;;;;13.95;43.09;99714.00;4918192;28;98487;-62
2022/03/30 01:37:19;;;;;;;;;;;;;;;13.92;42.77;99715.44;4920372;28;103740;-62
2022/03/30 01:39:44;;;;;;;;;;;;;;;13.93;42.66;99717.03;4918760;28;99224;-62
2022/03/30 01:42:10;;;;;;;;;;;;;;;13.91;42.88;99713.84;4918178;28;98963;-62
2022/03/30 01:44:36;;;;;;;;;;;;;;;13.89;42.70;99704.41;4918163;28;123982;-62
2022/03/30 01:47:03;;;;;;;;;;;;;;;13.87;42.83;99703.91;4918496;28;122441;-62
2022/03/30 01:49:28;;;;;;;;;;;;;;;13.87;42.74;99706.63;4919127;28;129094;-63
2022/03/30 01:51:55;;;;;;;;;;;;;;;13.85;42.61;99695.31;4918293;28;111382;-63
2022/03/30 01:54:23;;;;;;;;;;;;;;;13.83;42.71;99700.22;4918682;28;124213;-63
2022/03/30 01:56:49;;;;;;;;;;;;;;;13.81;42.66;99702.44;4918739;28;121417;-62
2022/03/30 01:59:16;;;;;;;;;;;;;;;13.79;42.80;99702.72;4918710;28;99069;-63
2022/03/30 02:01:42;;;;;;;;;;;;;;;13.77;42.76;99698.75;4918560;28;124801;-62
2022/03/30 02:04:08;;;;;;;;;;;;;;;13.76;42.78;99700.66;4900722;28;125507;-63
2022/03/30 02:06:35;;;;;;;;;;;;;;;13.73;42.72;99696.66;4919735;28;98128;-63
2022/03/30 02:09:01;;;;;;;;;;;;;;;13.72;42.60;99697.75;4919407;28;117215;-63
2022/03/30 02:11:26;;;;;;;;;;;;;;;13.71;42.74;99689.94;4918658;28;116257;-62
2022/03/30 02:13:53;;;;;;;;;;;;;;;13.69;42.62;99686.75;4920631;28;98341;-62
2022/03/30 02:16:19;;;;;;;;;;;;;;;13.68;42.66;99687.84;4918761;28;122609;-63
2022/03/30 02:18:46;;;;;;;;;;;;;;;13.66;42.74;99685.44;4918701;28;98466;-63
2022/03/30 02:21:12;;;;;;;;;;;;;;;13.65;42.66;99685.75;4917020;28;126459;-62
2022/03/30 02:23:39;;;;;;;;;;;;;;;13.63;42.68;99680.63;4918658;28;122546;-63
2022/03/30 02:26:05;;;;;;;;;;;;;;;13.62;42.55;99686.34;4918678;28;97784;-62
2022/03/30 02:28:31;;;;;;;;;;;;;;;13.59;42.57;99685.06;4918746;28;127692;-64
2022/03/30 02:30:57;;;;;;;;;;;;;;;13.59;42.63;99679.63;4918348;28;122842;-63
2022/03/30 02:33:23;;;;;;;;;;;;;;;13.59;42.55;99678.84;4919155;28;123343;-63
2022/03/30 02:35:51;;;;;;;;;;;;;;;13.56;42.58;99680.28;4918577;28;109348;-63
2022/03/30 02:38:16;;;;;;;;;;;;;;;13.55;42.73;99675.16;4918679;28;123295;-63
2022/03/30 02:40:43;;;;;;;;;;;;;;;13.51;42.61;99675.75;4918631;28;126498;-63
2022/03/30 02:43:10;;;;;;;;;;;;;;;13.50;42.53;99679.56;4918431;28;127775;-62
2022/03/30 02:45:36;;;;;;;;;;;;;;;13.49;42.82;99677.97;4884706;28;97928;-62
2022/03/30 02:48:17;;;;;;;;;;;;;;;13.48;42.57;99659.34;4918901;28;98916;-62
2022/03/30 02:50:47;;;;;;;;;;;;;;;13.47;42.67;99668.53;4919118;28;98460;-62
2022/03/30 02:53:16;;;;;;;;;;;;;;;13.45;42.57;99662.66;4921256;28;98042;-63
2022/03/30 02:55:42;;;;;;;;;;;;;;;13.44;42.80;99669.16;4921182;28;121135;-62
2022/03/30 02:58:09;;;;;;;;;;;;;;;13.43;42.52;99667.56;4923494;28;98595;-62
2022/03/30 03:00:35;;;;;;;;;;;;;;;13.41;42.66;99670.59;4922353;28;98722;-62
2022/03/30 03:03:02;;;;;;;;;;;;;;;13.40;42.67;99660.88;4921800;28;98299;-62
2022/03/30 03:05:32;;;;;;;;;;;;;;;13.38;42.58;99664.97;4921270;28;98227;-62
2022/03/30 03:07:59;;;;;;;;;;;;;;;13.36;42.66;99665.28;4922491;28;99372;-62
2022/03/30 03:10:25;;;;;;;;;;;;;;;13.35;42.69;99660.97;4922681;28;98493;-62
2022/03/30 03:12:52;;;;;;;;;;;;;;;13.34;42.47;99670.19;4920302;28;97999;-62
2022/03/30 03:15:18;;;;;;;;;;;;;;;13.34;42.60;99669.41;4922469;28;97967;-62
2022/03/30 03:17:44;;;;;;;;;;;;;;;13.31;42.52;99670.78;4921544;28;127029;-62
2022/03/30 03:20:11;;;;;;;;;;;;;;;13.30;42.73;99663.78;4921343;28;128860;-62
2022/03/30 03:22:37;;;;;;;;;;;;;;;13.28;42.52;99663.28;4921817;28;98035;-62
2022/03/30 03:25:04;;;;;;;;;;;;;;;13.27;42.64;99654.38;4930408;28;98052;-62
2022/03/30 03:27:30;;;;;;;;;;;;;;;13.26;42.56;99654.69;4931555;28;98443;-62
2022/03/30 03:29:56;;;;;;;;;;;;;;;13.25;42.61;99663.91;4920373;28;128142;-62
2022/03/30 03:32:22;;;;;;;;;;;;;;;13.23;42.57;99656.06;4920861;28;115023;-62
2022/03/30 03:34:48;;;;;;;;;;;;;;;13.22;42.47;99659.88;4921336;28;114276;-62
2022/03/30 03:37:15;;;;;;;;;;;;;;;13.21;42.48;99655.56;4920338;28;128654;-62
2022/03/30 03:39:44;;;;;;;;;;;;;;;13.20;42.59;99658.56;4920579;28;99380;-62
2022/03/30 03:42:10;;;;;;;;;;;;;;;13.19;42.54;99655.06;4921441;28;112312;-63
2022/03/30 03:44:36;;;;;;;;;;;;;;;13.18;42.54;99652.66;4903274;28;115242;-62
2022/03/30 03:47:02;;;;;;;;;;;;;;;13.17;42.62;99657.28;4920188;28;116972;-63
2022/03/30 03:49:28;;;;;;;;;;;;;;;13.16;42.51;99655.66;4921495;28;98201;-62
2022/03/30 03:51:54;;;;;;;;;;;;;;;13.15;42.52;99661.38;4920961;28;125913;-63
2022/03/30 03:54:20;;;;;;;;;;;;;;;13.14;42.44;99657.88;4921033;28;121787;-62
2022/03/30 03:56:46;;;;;;;;;;;;;;;13.13;42.70;99669.81;4920236;28;127533;-62
2022/03/30 03:59:12;;;;;;;;;;;;;;;13.13;42.56;99671.72;4921012;28;127935;-62
2022/03/30 04:01:38;;;;;;;;;;;;;;;13.11;42.43;99666.59;4920708;28;126686;-62
2022/03/30 04:04:05;;;;;;;;;;;;;;;13.11;42.56;99669.31;4901756;28;123241;-63
2022/03/30 04:06:31;;;;;;;;;;;;;;;13.09;42.52;99666.13;4920649;28;98851;-62
2022/03/30 04:08:57;;;;;;;;;;;;;;;13.11;42.38;99663.09;4921694;28;122123;-63
2022/03/30 04:11:23;;;;;;;;;;;;;;;13.10;42.49;99653.38;4920449;28;98145;-62
2022/03/30 04:13:49;;;;;;;;;;;;;;;13.09;42.03;99657.19;4903549;28;100457;-63
2022/03/30 04:16:16;;;;;;;;;;;;;;;13.09;42.54;99654.50;4902442;28;98604;-63
2022/03/30 04:18:45;;;;;;;;;;;;;;;13.10;42.64;99647.97;4921640;28;98592;-62
2022/03/30 04:21:11;;;;;;;;;;;;;;;13.09;42.45;99649.09;4921270;28;102183;-63
2022/03/30 04:23:37;;;;;;;;;;;;;;;13.09;42.53;99649.88;4920380;28;121925;-62
2022/03/30 04:26:03;;;;;;;;;;;;;;;13.09;42.66;99647.16;4937370;28;98411;-62
2022/03/30 04:28:29;;;;;;;;;;;;;;;13.09;42.49;99649.09;4923483;28;98325;-63
2022/03/30 04:30:55;;;;;;;;;;;;;;;13.09;42.58;99644.47;4919432;28;128691;-62
2022/03/30 04:33:21;;;;;;;;;;;;;;;13.08;42.52;99645.56;4918788;28;123022;-63
2022/03/30 04:35:47;;;;;;;;;;;;;;;13.10;42.45;99643.34;4919959;28;127214;-63
2022/03/30 04:38:14;;;;;;;;;;;;;;;13.10;42.73;99645.25;4899456;28;121418;-64
2022/03/30 04:40:40;;;;;;;;;;;;;;;13.10;42.57;99650.69;4916621;28;98331;-63
2022/03/30 04:43:06;;;;;;;;;;;;;;;13.10;42.56;99661.50;4915900;28;122684;-64
2022/03/30 04:45:32;;;;;;;;;;;;;;;13.10;42.47;99656.88;4916887;28;127291;-63
2022/03/30 04:47:57;;;;;;;;;;;;;;;13.10;42.51;99658.78;4916693;28;127970;-63
2022/03/30 04:50:23;;;;;;;;;;;;;;;13.10;42.74;99661.50;4913483;28;127403;-63
2022/03/30 04:52:49;;;;;;;;;;;;;;;13.09;42.59;99658.00;4915784;28;122290;-64
2022/03/30 04:55:15;;;;;;;;;;;;;;;13.11;42.44;99665.78;4915346;28;114109;-63
2022/03/30 04:57:41;;;;;;;;;;;;;;;13.13;42.68;99656.28;4914628;28;126567;-64
2022/03/30 05:00:09;;;;;;;;;;;;;;;13.14;42.68;99651.66;4917162;28;98087;-63
2022/03/30 05:02:36;;;;;;;;;;;;;;;13.16;42.48;99649.44;4916087;28;97911;-63
2022/03/30 05:05:03;;;;;;;;;;;;;;;13.16;42.52;99644.81;4912826;28;101117;-63
2022/03/30 05:07:29;;;;;;;;;;;;;;;13.18;42.42;99639.94;4920494;28;98979;-63
2022/03/30 05:09:57;;;;;;;;;;;;;;;13.20;42.47;99645.03;4918950;28;127538;-63
2022/03/30 05:12:23;;;;;;;;;;;;;;;13.23;42.62;99645.25;4921080;28;97832;-64
2022/03/30 05:14:49;;;;;;;;;;;;;;;13.25;42.43;99643.06;4919199;28;124962;-63
2022/03/30 05:17:15;;;;;;;;;;;;;;;13.27;42.47;99648.94;4919641;28;98887;-64
2022/03/30 05:19:44;;;;;;;;;;;;;;;13.30;42.54;99650.25;4919087;28;119700;-63
2022/03/30 05:22:10;;;;;;;;;;;;;;;13.33;42.46;99643.44;4920215;28;97979;-64
2022/03/30 05:24:37;;;;;;;;;;;;;;;13.36;42.69;99637.41;4924985;28;117260;-63
2022/03/30 05:27:03;;;;;;;;;;;;;;;13.40;42.39;99638.38;4933796;28;99040;-63
2022/03/30 05:29:29;;;;;;;;;;;;;;;13.43;42.50;99648.59;4920117;28;97962;-63
2022/03/30 05:31:55;;;;;;;;;;;;;;;13.46;42.54;99646.09;4920845;28;98153;-64
2022/03/30 05:34:21;;;;;;;;;;;;;;;13.50;42.57;99652.50;4918876;28;126823;-63
2022/03/30 05:36:48;;;;;;;;;;;;;;;13.55;42.31;99650.78;4918877;28;124272;-63
2022/03/30 05:39:14;;;;;;;;;;;;;;;13.61;42.56;99646.84;4919725;28;98556;-64
2022/03/30 05:41:40;;;;;;;;;;;;;;;13.66;42.36;99644.00;4918650;28;106593;-63
2022/03/30 05:44:05;;;;;;;;;;;;;;;13.73;42.46;99649.81;4919183;28;127988;-64
2022/03/30 05:46:31;;;;;;;;;;;;;;;13.80;42.41;99647.47;4919442;28;99041;-63
2022/03/30 05:48:57;;;;;;;;;;;;;;;13.86;42.24;99645.44;4920513;28;98043;-64
2022/03/30 05:51:24;;;;;;;;;;;;;;;13.92;42.28;99641.50;4918791;28;121946;-64
2022/03/30 05:53:50;;;;;;;;;;;;;;;13.96;42.27;99639.78;4920344;28;99078;-64
2022/03/30 05:56:16;;;;;;;;;;;;;;;14.02;42.30;99640.44;4918406;28;128143;-63
2022/03/30 05:58:41;;;;;;;;;;;;;;;14.10;42.48;99635.06;4916854;28;127747;-63
2022/03/30 06:01:07;;;;;;;;;;;;;;;14.17;42.44;99640.84;4918414;28;123598;-64
2022/03/30 06:03:37;;;;;;;;;;;;;;;14.24;42.38;99637.69;4917577;28;127308;-63
2022/03/30 06:06:04;;;;;;;;;;;;;;;14.31;42.61;99634.53;4918660;28;99178;-63
2022/03/30 06:08:31;;;;;;;;;;;;;;;14.36;42.28;99642.53;4918874;28;98480;-64
2022/03/30 06:10:57;;;;;;;;;;;;;;;14.42;42.27;99636.66;4919719;28;98269;-64
2022/03/30 06:13:23;;;;;;;;;;;;;;;14.46;42.37;99644.94;4918593;28;128157;-63
2022/03/30 06:15:49;;;;;;;;;;;;;;;14.51;42.33;99647.56;4918679;28;127662;-63
2022/03/30 06:18:15;;;;;;;;;;;;;;;14.61;42.25;99646.47;4919125;28;126931;-63
2022/03/30 06:20:41;;;;;;;;;;;;;;;14.70;42.34;99642.72;4916830;28;120464;-64
2022/03/30 06:23:07;;;;;;;;;;;;;;;14.81;42.15;99636.97;4917864;28;98491;-64
2022/03/30 06:25:33;;;;;;;;;;;;;;;14.91;42.43;99639.41;4931650;28;98232;-63
2022/03/30 06:27:59;;;;;;;;;;;;;;;15.04;42.41;99643.09;4926661;28;99241;-63
2022/03/30 06:30:25;;;;;;;;;;;;;;;15.15;42.00;99647.09;4921389;28;123275;-64
2022/03/30 06:32:52;;;;;;;;;;;;;;;15.29;42.20;99647.78;4922283;28;127788;-63
2022/03/30 06:35:18;;;;;;;;;;;;;;;15.41;42.27;99649.88;4922421;28;98827;-63
2022/03/30 06:37:45;;;;;;;;;;;;;;;15.56;42.16;99648.56;4922414;28;98703;-63
2022/03/30 06:40:11;;;;;;;;;;;;;;;15.78;41.88;99640.28;4922034;28;99353;-64
2022/03/30 06:42:38;;;;;;;;;;;;;;;15.97;41.46;99642.66;4923510;28;98455;-63
2022/03/30 06:45:06;;;;;;;;;;;;;;;16.10;41.69;99647.09;4922698;28;99197;-64
2022/03/30 06:47:32;;;;;;;;;;;;;;;16.30;41.52;99640.16;4921472;28;98282;-64
2022/03/30 06:49:58;;;;;;;;;;;;;;;16.46;41.76;99645.84;4921709;28;118240;-63
2022/03/30 06:52:24;;;;;;;;;;;;;;;16.60;41.45;99643.72;4921484;28;106617;-63
2022/03/30 06:54:50;;;;;;;;;;;;;;;16.73;41.63;99644.66;4921930;28;128022;-64
2022/03/30 06:57:16;;;;;;;;;;;;;;;16.85;41.61;99642.03;4921654;28;127469;-64
2022/03/30 06:59:42;;;;;;;;;;;;;;;16.93;41.57;99633.00;4923377;28;98475;-64
2022/03/30 07:02:08;;;;;;;;;;;;;;;17.06;41.51;99641.28;4921129;28;128223;-63
2022/03/30 07:04:35;;;;;;;;;;;;;;;17.18;41.35;99636.72;4922158;28;98179;-63
2022/03/30 07:12:31;;;;;;;;;;;;;;;17.74;41.23;99638.34;4919331;28;98456;-63
2022/03/30 07:14:57;;;;;;;;;;;;;;;18.05;40.92;99651.53;4921361;28;128015;-63
2022/03/30 07:17:23;;;;;;;;;;;;;;;18.27;40.74;99642.16;4921726;28;97918;-63
2022/03/30 07:19:49;;;;;;;;;;;;;;;18.39;40.73;99636.69;4922710;28;97784;-63
2022/03/30 07:22:15;;;;;;;;;;;;;;;18.51;40.89;99634.00;4921792;28;98694;-63
2022/03/30 07:24:41;;;;;;;;;;;;;;;18.62;40.83;99637.84;4921716;28;98162;-63
2022/03/30 07:27:07;;;;;;;;;;;;;;;18.67;41.04;99636.84;4921792;28;98046;-63
2022/03/30 07:29:33;;;;;;;;;;;;;;;18.74;40.99;99630.84;4903461;28;97842;-63
2022/03/30 07:31:59;;;;;;;;;;;;;;;18.86;40.95;99641.75;4921355;28;98903;-63
2022/03/30 07:34:25;;;;;;;;;;;;;;;18.98;40.80;99632.75;4921717;28;128486;-63
2022/03/30 07:36:51;;;;;;;;;;;;;;;19.07;40.75;99634.25;4920292;28;127583;-63
2022/03/30 07:39:17;;;;;;;;;;;;;;;19.25;40.78;99623.03;4920231;28;122472;-63
2022/03/30 07:41:44;;;;;;;;;;;;;;;19.40;40.66;99627.00;4919714;28;128156;-63
2022/03/30 07:44:10;;;;;;;;;;;;;;;19.68;40.34;99625.09;4921102;28;98947;-63
2022/03/30 07:46:36;;;;;;;;;;;;;;;19.95;40.38;99625.41;4920719;28;128875;-63
2022/03/30 07:49:02;;;;;;;;;;;;;;;20.04;40.40;99618.66;4921445;28;122621;-63
2022/03/30 07:51:29;;;;;;;;;;;;;;;20.26;40.03;99622.72;4903170;28;99704;-63
2022/03/30 07:53:55;;;;;;;;;;;;;;;20.43;40.14;99613.34;4921413;28;97839;-63
2022/03/30 07:56:21;;;;;;;;;;;;;;;20.86;39.67;99619.09;4920188;28;113419;-63
2022/03/30 07:58:48;;;;;;;;;;;;;;;20.82;39.88;99617.06;4921223;28;97914;-63
2022/03/30 08:01:16;;;;;;;;;;;;;;;20.73;40.16;99621.16;4920546;28;99457;-63
2022/03/30 08:03:44;;;;;;;;;;;;;;;20.97;39.92;99614.66;4921386;28;99257;-63
2022/03/30 08:06:10;;;;;;;;;;;;;;;21.19;39.87;99616.72;4902903;28;100291;-63
2022/03/30 08:08:36;;;;;;;;;;;;;;;21.29;39.74;99610.66;4920901;28;97861;-63
2022/03/30 08:11:02;;;;;;;;;;;;;;;21.81;39.17;99608.56;4920296;28;127402;-63
2022/03/30 08:13:28;;;;;;;;;;;;;;;22.48;38.58;99606.25;4920226;28;125397;-63
2022/03/30 08:15:54;;;;;;;;;;;;;;;22.97;38.34;99604.66;4919414;28;127365;-63
2022/03/30 08:18:19;;;;;;;;;;;;;;;23.57;37.76;99609.34;4919676;28;122436;-63
2022/03/30 08:23:30;;;;;;;;;;;;;;;24.59;37.66;99605.25;4918044;28;97953;-63
2022/03/30 08:25:56;;;;;;;;;;;;;;;24.98;37.26;99606.31;4920210;28;112113;-63
2022/03/30 08:28:22;;;;;;;;;;;;;;;25.33;37.13;99604.16;4919906;28;121684;-63
2022/03/30 08:30:48;;;;;;;;;;;;;;;25.72;37.28;99612.56;4919764;28;128708;-63
2022/03/30 08:33:16;;;;;;;;;;;;;;;25.81;37.56;99604.72;4921154;28;98520;-63
2022/03/30 08:35:42;;;;;;;;;;;;;;;25.90;37.39;99605.16;4920024;28;97968;-62
2022/03/30 08:38:08;;;;;;;;;;;;;;;26.14;36.92;99609.13;4920546;28;98044;-63
2022/03/30 08:40:34;;;;;;;;;;;;;;;26.40;36.80;99601.63;4919680;28;128608;-63
2022/03/30 08:43:00;;;;;;;;;;;;;;;26.45;36.90;99595.78;4919736;28;127863;-63
2022/03/30 08:45:26;;;;;;;;;;;;;;;26.35;37.06;99591.78;4919612;28;127794;-63
2022/03/30 08:47:52;;;;;;;;;;;;;;;26.31;36.96;99596.50;4920704;28;104620;-63
2022/03/30 08:50:19;;;;;;;;;;;;;;;26.28;36.86;99593.75;4919689;28;98347;-63
2022/03/30 08:52:47;;;;;;;;;;;;;;;26.13;37.11;99591.00;4921046;28;98727;-62
2022/03/30 08:55:13;;;;;;;;;;;;;;;25.97;37.06;99592.53;4919328;28;97925;-62
2022/03/30 08:57:39;;;;;;;;;;;;;;;25.89;37.05;99594.50;4920234;28;109328;-62
2022/03/30 09:00:16;;;;;;;;;;;;;;;25.81;36.91;99581.88;4918933;28;127271;-63
2022/03/30 09:02:49;;;;;;;;;;;;;;;25.77;36.75;99573.56;4921407;28;99264;-63
2022/03/30 09:05:25;;;;;;;;;;;;;;;25.58;36.88;99569.16;4920117;28;119428;-62
2022/03/30 09:08:14;;;;;;;;;;;;;;;25.31;37.28;99573.41;4920440;28;97784;-62
2022/03/30 09:10:42;;;;;;;;;;;;;;;25.09;37.43;99565.06;4919639;28;99385;-63
2022/03/30 09:13:08;;;;;;;;;;;;;;;24.95;37.31;99562.19;4920154;28;98349;-63
2022/03/30 09:15:35;;;;;;;;;;;;;;;24.81;37.59;99551.88;4919547;28;98312;-63
2022/03/30 09:18:02;;;;;;;;;;;;;;;24.67;37.50;99558.09;4919982;28;112697;-63
2022/03/30 09:20:28;;;;;;;;;;;;;;;24.53;37.56;99558.03;4918917;28;128316;-63
2022/03/30 09:22:55;;;;;;;;;;;;;;;24.52;37.80;99547.38;4920272;28;98532;-62
2022/03/30 09:25:30;;;;;;;;;;;;;;;24.49;37.50;99549.72;4920121;28;98556;-63
2022/03/30 09:27:57;;;;;;;;;;;;;;;24.43;37.53;99545.75;4920692;28;97760;-63
2022/03/30 09:30:25;;;;;;;;;;;;;;;24.43;37.91;99539.44;4901689;28;98269;-63
2022/03/30 09:32:57;;;;;;;;;;;;;;;24.39;37.72;99533.91;4919309;28;119517;-63
2022/03/30 09:35:28;;;;;;;;;;;;;;;24.41;37.72;99536.28;4919786;28;97878;-63
2022/03/30 09:38:19;;;;;;;;;;;;;;;24.45;37.75;99537.13;4919741;28;98424;-63
2022/03/30 09:40:54;;;;;;;;;;;;;;;24.46;37.64;99527.66;4919919;28;98785;-63
2022/03/30 09:43:23;;;;;;;;;;;;;;;24.49;37.59;99524.16;4919512;28;98327;-63
2022/03/30 09:46:05;;;;;;;;;;;;;;;24.57;37.74;99525.78;4919242;28;98528;-63
2022/03/30 09:48:52;;;;;;;;;;;;;;;24.83;37.29;99524.72;4919407;28;97811;-63
2022/03/30 09:51:19;;;;;;;;;;;;;;;25.08;37.11;99526.84;4901030;28;98298;-63
2022/03/30 09:53:46;;;;;;;;;;;;;;;25.27;37.08;99528.47;4918494;28;119898;-63
2022/03/30 09:56:16;;;;;;;;;;;;;;;25.30;37.21;99527.72;4918860;28;98772;-63
2022/03/30 09:58:43;;;;;;;;;;;;;;;25.62;36.77;99530.56;4918701;28;120265;-63
2022/03/30 10:01:14;;;;;;;;;;;;;;;25.55;37.30;99525.81;4918968;28;98905;-63
2022/03/30 10:03:51;;;;;;;;;;;;;;;25.43;37.38;99520.69;4917823;28;98562;-63
2022/03/30 10:06:33;;;;;;;;;;;;;;;25.38;37.54;99521.03;4918966;28;98203;-63
2022/03/30 10:08:59;;;;;;;;;;;;;;;25.25;37.53;99520.63;4919504;28;97848;-63
2022/03/30 10:11:27;;;;;;;;;;;;;;;25.15;37.78;99521.34;4917526;28;126030;-63
2022/03/30 10:13:55;;;;;;;;;;;;;;;25.02;37.89;99518.13;4919439;28;98755;-63
2022/03/30 10:16:21;;;;;;;;;;;;;;;24.99;38.17;99518.91;4919016;28;116735;-63
2022/03/30 10:18:48;;;;;;;;;;;;;;;24.88;38.24;99507.84;4918397;28;122696;-63
2022/03/30 10:21:46;;;;;;;;;;;;;;;24.77;38.29;99511.72;4919628;28;98594;-63
2022/03/30 10:24:28;;;;;;;;;;;;;;;24.53;38.38;99505.69;4918433;28;99178;-63
2022/03/30 10:27:26;;;;;;;;;;;;;;;24.32;38.73;99500.78;4917618;28;98347;-63
2022/03/30 10:29:54;;;;;;;;;;;;;;;24.08;38.74;99501.41;4918738;28;98036;-63
2022/03/30 10:32:22;;;;;;;;;;;;;;;23.88;38.88;99504.38;4919098;28;98169;-63
2022/03/30 10:34:54;;;;;;;;;;;;;;;23.65;39.13;99507.28;4918878;28;127154;-63
2022/03/30 10:37:37;;;;;;;;;;;;;;;23.43;39.14;99500.00;4918087;28;97867;-63
2022/03/30 10:40:05;;;;;;;;;;;;;;;23.25;39.58;99491.53;4919267;28;98585;-63
2022/03/30 10:42:46;;;;;;;;;;;;;;;23.10;39.56;99490.59;4918814;28;97870;-62
2022/03/30 10:45:34;;;;;;;;;;;;;;;23.01;39.48;99490.88;4918833;28;98931;-63
2022/03/30 10:48:18;;;;;;;;;;;;;;;23.03;39.44;99493.28;4919063;28;98542;-63
2022/03/30 10:50:52;;;;;;;;;;;;;;;23.03;39.36;99493.28;4918703;28;97958;-63
2022/03/30 10:53:38;;;;;;;;;;;;;;;23.08;39.29;99486.66;4919494;28;98885;-62
2022/03/30 10:56:16;;;;;;;;;;;;;;;23.09;39.31;99483.50;4918583;28;99224;-63
2022/03/30 10:59:00;;;;;;;;;;;;;;;23.09;39.02;99485.47;4900271;28;98526;-63
2022/03/30 11:01:30;;;;;;;;;;;;;;;23.08;38.98;99481.16;4899223;28;98392;-63
2022/03/30 11:04:02;;;;;;;;;;;;;;;23.04;39.08;99481.09;4919491;28;105117;-63
2022/03/30 11:06:29;;;;;;;;;;;;;;;23.01;39.18;99474.41;4918761;28;104545;-63
2022/03/30 11:08:59;;;;;;;;;;;;;;;23.00;39.11;99478.31;4919820;28;98304;-62
2022/03/30 11:11:39;;;;;;;;;;;;;;;22.97;39.49;99476.31;4917823;28;97851;-63
2022/03/30 11:14:24;;;;;;;;;;;;;;;22.94;39.41;99468.81;4920530;28;99173;-63
2022/03/30 11:16:55;;;;;;;;;;;;;;;22.86;39.20;99466.31;4921184;28;98136;-62
2022/03/30 11:19:28;;;;;;;;;;;;;;;22.77;39.42;99461.13;4921971;28;97908;-63
2022/03/30 11:22:14;;;;;;;;;;;;;;;22.71;39.58;99457.91;4904233;28;99349;-63
2022/03/30 11:24:46;;;;;;;;;;;;;;;22.64;39.60;99457.03;4926757;28;118568;-63
2022/03/30 11:27:14;;;;;;;;;;;;;;;22.56;39.59;99456.16;4915739;28;128627;-63
2022/03/30 11:29:52;;;;;;;;;;;;;;;22.50;39.74;99441.94;4919935;28;125493;-62
2022/03/30 11:32:32;;;;;;;;;;;;;;;22.47;39.74;99450.13;4921942;28;97900;-62
2022/03/30 11:34:59;;;;;;;;;;;;;;;22.45;39.73;99446.97;4921302;28;98434;-63
2022/03/30 11:37:26;;;;;;;;;;;;;;;22.43;39.74;99447.34;4920313;28;123222;-62
2022/03/30 11:40:01;;;;;;;;;;;;;;;22.41;39.81;99441.44;4921080;28;98225;-62
2022/03/30 11:42:27;;;;;;;;;;;;;;;22.41;39.74;99438.69;4920495;28;98036;-63
2022/03/30 11:47:39;;;;;;;;;;;;;;;22.27;39.95;99430.25;4918778;28;98175;-63
2022/03/30 11:50:05;;;;;;;;;;;;;;;22.26;39.98;99434.94;4920443;28;98114;-62
2022/03/30 11:52:31;;;;;;;;;;;;;;;22.26;39.86;99434.16;4921065;28;120746;-62
2022/03/30 11:54:57;;;;;;;;;;;;;;;22.21;40.01;99432.53;4920576;28;119382;-63
2022/03/30 11:57:23;;;;;;;;;;;;;;;22.10;40.13;99425.28;4921090;28;102452;-63
2022/03/30 12:00:00;;;;;;;;;;;;;;;22.01;40.25;99420.84;4921510;28;98759;-62
2022/03/30 12:02:26;;;;;;;;;;;;;;;21.92;40.33;99420.28;4921762;28;98066;-63
2022/03/30 12:04:52;;;;;;;;;;;;;;;21.81;40.46;99413.84;4919333;28;109421;-62
2022/03/30 12:07:21;;;;;;;;;;;;;;;21.71;40.55;99418.00;4920563;28;128750;-62
2022/03/30 12:09:48;;;;;;;;;;;;;;;21.55;40.69;99418.16;4921348;28;98322;-63
2022/03/30 12:12:37;;;;;;;;;;;;;;;21.42;40.77;99421.41;4921138;28;98863;-63
2022/03/30 12:15:11;;;;;;;;;;;;;;;21.33;40.63;99424.41;4920578;28;99062;-63
2022/03/30 12:17:37;;;;;;;;;;;;;;;21.25;40.86;99414.44;4921405;28;98904;-62
2022/03/30 12:20:06;;;;;;;;;;;;;;;21.24;40.81;99415.59;4920982;28;98437;-63
2022/03/30 12:22:33;;;;;;;;;;;;;;;21.23;40.80;99403.84;4921781;28;98442;-63
2022/03/30 12:24:58;;;;;;;;;;;;;;;21.21;40.74;99397.94;4919992;28;98401;-62
2022/03/30 12:27:25;;;;;;;;;;;;;;;21.19;40.67;99402.22;4920339;28;127246;-63
2022/03/30 12:29:56;;;;;;;;;;;;;;;21.14;40.73;99397.00;4920136;28;125294;-62
2022/03/30 12:32:26;;;;;;;;;;;;;;;21.08;40.82;99400.06;4921070;28;97705;-62
2022/03/30 12:35:12;;;;;;;;;;;;;;;21.02;40.91;99396.03;4902014;28;98881;-62
2022/03/30 12:37:38;;;;;;;;;;;;;;;20.95;41.03;99397.84;4912273;28;98872;-62
2022/03/30 12:40:09;;;;;;;;;;;;;;;20.87;41.03;99388.72;4919791;28;99133;-62
2022/03/30 12:42:35;;;;;;;;;;;;;;;20.80;41.01;99385.84;4920887;28;97806;-62
2022/03/30 12:45:10;;;;;;;;;;;;;;;20.73;41.08;99389.22;4919684;28;128708;-62
2022/03/30 12:47:36;;;;;;;;;;;;;;;20.67;41.18;99392.59;4920753;28;98336;-63
2022/03/30 12:50:07;;;;;;;;;;;;;;;20.61;41.22;99391.31;4919966;28;99093;-63
2022/03/30 12:52:37;;;;;;;;;;;;;;;20.54;41.21;99386.47;4920579;28;97835;-63
2022/03/30 12:55:36;;;;;;;;;;;;;;;20.50;41.27;99389.13;4901236;28;126045;-63
2022/03/30 12:58:11;;;;;;;;;;;;;;;20.46;41.20;99390.19;4908834;28;98390;-62
2022/03/30 13:00:42;;;;;;;;;;;;;;;20.44;41.23;99390.56;4920826;28;97912;-62
2022/03/30 13:03:13;;;;;;;;;;;;;;;20.46;41.36;99385.50;4921978;28;97779;-62